Time;durP1;ratioP1;P1;durP2;ratioP2;P2;SDS_P1;SDS_P2;PMS_P1;PMS_P2;Temp;Humidity;BMP_temperature;BMP_pressure;BME280_temperature;BME280_humidity;BME280_pressure;Samples;Min_cycle;Max_cycle;Signal;HPM_P1;HPM_P2
2023/03/05 00:01:12;;;;;;;31.73;24.63;;;;;;;41.22;36.55;101024.81;6154822;23;20804;-90
2023/03/05 00:03:38;;;;;;;36.20;24.63;;;;;;;41.49;36.44;101015.44;6154946;23;20377;-93
2023/03/05 00:06:05;;;;;;;28.33;24.43;;;;;;;41.59;36.15;101003.38;6154540;23;20420;-90
2023/03/05 00:08:32;;;;;;;32.30;23.20;;;;;;;41.14;37.27;100992.19;6154471;23;20472;-89
2023/03/05 00:11:00;;;;;;;29.47;19.97;;;;;;;41.55;36.45;100977.94;6154704;23;20409;-89
2023/03/05 00:13:26;;;;;;;26.40;19.03;;;;;;;41.59;36.93;100974.22;6154719;23;20393;-89
2023/03/05 00:15:52;;;;;;;31.97;21.13;;;;;;;41.16;37.46;100973.63;6156170;23;20450;-89
2023/03/05 00:18:19;;;;;;;26.00;17.30;;;;;;;41.25;37.51;100971.63;6154505;23;20855;-88
2023/03/05 00:20:45;;;;;;;34.57;20.50;;;;;;;41.40;37.29;100964.88;6154622;23;20436;-88
2023/03/05 00:23:11;;;;;;;27.43;16.20;;;;;;;41.39;37.23;100957.84;6154441;23;20420;-87
2023/03/05 00:25:39;;;;;;;28.90;17.60;;;;;;;41.27;37.22;100942.19;6154650;23;20389;-88
2023/03/05 00:28:05;;;;;;;30.70;17.57;;;;;;;41.13;37.33;100930.69;6155896;23;20472;-88
2023/03/05 00:30:31;;;;;;;27.33;19.00;;;;;;;41.32;37.36;100929.22;6154648;23;20397;-89
2023/03/05 00:32:57;;;;;;;31.23;24.50;;;;;;;41.21;37.59;100919.78;6154071;23;20409;-91
2023/03/05 00:35:23;;;;;;;41.97;27.63;;;;;;;41.11;37.20;100911.19;6153920;23;20897;-89
2023/03/05 00:37:50;;;;;;;35.23;23.43;;;;;;;41.58;36.75;100912.72;6154538;23;20389;-89
2023/03/05 00:40:16;;;;;;;31.10;20.80;;;;;;;41.61;36.65;100912.06;6154021;23;20810;-88
2023/03/05 00:42:42;;;;;;;23.30;18.83;;;;;;;41.36;37.48;100904.03;6154273;23;20389;-88
2023/03/05 00:45:09;;;;;;;24.43;17.37;;;;;;;41.21;37.19;100902.66;6154348;23;20448;-89
2023/03/05 00:47:36;;;;;;;21.33;18.43;;;;;;;41.52;36.74;100902.34;6156283;23;20357;-89
2023/03/05 00:50:03;;;;;;;26.30;19.00;;;;;;;41.38;37.04;100897.16;6154353;23;20892;-89
2023/03/05 00:52:29;;;;;;;22.87;17.93;;;;;;;41.49;36.76;100889.38;6154191;23;20409;-89
2023/03/05 00:54:55;;;;;;;28.60;16.47;;;;;;;41.81;36.70;100904.28;6153983;23;20876;-90
2023/03/05 00:57:21;;;;;;;31.90;19.40;;;;;;;42.02;36.18;100896.06;6153657;23;20436;-89
2023/03/05 00:59:47;;;;;;;31.77;18.47;;;;;;;41.84;36.29;100893.50;6153765;23;20420;-92
2023/03/05 01:02:13;;;;;;;31.10;20.43;;;;;;;41.84;36.65;100888.03;6154028;23;20451;-92
2023/03/05 01:04:40;;;;;;;31.57;18.23;;;;;;;41.99;36.05;100888.56;6154089;23;20385;-91
2023/03/05 01:07:06;;;;;;;30.33;19.07;;;;;;;41.85;36.85;100897.00;6153651;23;20448;-88
2023/03/05 01:09:32;;;;;;;36.07;18.33;;;;;;;41.95;36.33;100883.00;6153862;23;20381;-89
2023/03/05 01:11:59;;;;;;;33.43;18.70;;;;;;;41.88;36.59;100881.94;6154138;23;20402;-89
2023/03/05 01:14:27;;;;;;;30.60;19.10;;;;;;;41.71;37.20;100883.63;6153708;23;20393;-88
2023/03/05 01:16:53;;;;;;;24.73;17.83;;;;;;;41.85;37.15;100886.91;6154086;23;20479;-89
2023/03/05 01:19:19;;;;;;;28.97;16.77;;;;;;;41.65;37.34;100879.50;6153554;23;20393;-89
2023/03/05 01:21:45;;;;;;;30.93;20.03;;;;;;;41.34;38.01;100871.72;6153883;23;20432;-92
2023/03/05 01:24:11;;;;;;;27.63;18.60;;;;;;;41.36;38.14;100871.38;6153607;23;20385;-90
2023/03/05 01:26:37;;;;;;;45.70;20.37;;;;;;;41.76;37.37;100885.41;6153998;23;20779;-92
2023/03/05 01:29:03;;;;;;;37.20;20.83;;;;;;;41.68;37.55;100883.50;6154000;23;20388;-92
2023/03/05 01:31:29;;;;;;;33.77;17.93;;;;;;;41.52;37.56;100881.38;6154242;23;20392;-89
2023/03/05 01:33:55;;;;;;;49.97;27.87;;;;;;;41.18;37.87;100876.09;6153317;23;20914;-90
2023/03/05 01:36:23;;;;;;;32.73;21.70;;;;;;;41.30;38.06;100879.69;6154140;23;20524;-89
2023/03/05 01:38:50;;;;;;;24.40;17.20;;;;;;;41.05;38.44;100872.47;6153691;23;20395;-90
2023/03/05 01:41:17;;;;;;;34.40;19.23;;;;;;;41.31;37.99;100870.44;6153444;23;20758;-85
2023/03/05 01:43:45;;;;;;;26.63;17.53;;;;;;;41.15;38.23;100868.59;6153686;23;20950;-88
2023/03/05 01:46:30;;;;;;;25.13;16.37;;;;;;;41.18;37.90;100860.56;6155474;23;20440;-89
2023/03/05 01:49:18;;;;;;;25.90;14.87;;;;;;;41.41;37.71;100855.66;6153630;23;20460;-90
2023/03/05 01:51:57;;;;;;;20.13;13.10;;;;;;;41.34;37.62;100841.78;6154071;23;20417;-89
2023/03/05 01:54:56;;;;;;;23.37;15.57;;;;;;;41.49;37.18;100830.28;6153896;23;20392;-89
2023/03/05 01:57:29;;;;;;;29.67;16.73;;;;;;;41.67;37.14;100820.06;6142650;23;20501;-86
2023/03/05 02:00:01;;;;;;;24.03;15.17;;;;;;;40.98;37.95;100812.34;6152402;23;20444;-89
2023/03/05 02:02:28;;;;;;;24.10;16.67;;;;;;;41.33;37.36;100813.75;6153797;23;20909;-91
2023/03/05 02:04:59;;;;;;;22.87;15.50;;;;;;;41.34;37.73;100809.09;6153737;23;20386;-91
2023/03/05 02:07:26;;;;;;;23.00;17.30;;;;;;;40.91;37.91;100806.63;6153233;23;20494;-89
2023/03/05 02:09:52;;;;;;;33.60;19.50;;;;;;;41.11;37.68;100810.50;6155251;23;20357;-87
2023/03/05 02:12:18;;;;;;;32.80;21.40;;;;;;;40.61;38.27;100812.00;6153074;23;20388;-85
2023/03/05 02:14:47;;;;;;;25.37;17.57;;;;;;;40.97;38.02;100805.31;6153608;23;20405;-89
2023/03/05 02:17:14;;;;;;;29.50;17.57;;;;;;;40.79;38.30;100813.53;6153498;23;20381;-88
2023/03/05 02:19:51;;;;;;;29.73;20.63;;;;;;;40.98;37.94;100820.50;6153287;23;20397;-88
2023/03/05 02:22:19;;;;;;;21.67;16.13;;;;;;;41.14;38.08;100824.25;6153304;23;20425;-84
2023/03/05 02:24:45;;;;;;;22.93;16.50;;;;;;;40.48;38.74;100808.38;6153530;23;20400;-91
2023/03/05 02:27:12;;;;;;;22.97;17.63;;;;;;;41.01;38.23;100809.78;6153519;23;20428;-92
2023/03/05 02:29:43;;;;;;;21.80;15.90;;;;;;;41.13;37.92;100802.81;6152944;23;20734;-90
2023/03/05 02:32:10;;;;;;;25.90;18.30;;;;;;;41.10;37.83;100806.19;6153464;23;20387;-90
2023/03/05 02:34:36;;;;;;;24.63;17.63;;;;;;;40.82;38.28;100806.63;6153094;23;20392;-92
2023/03/05 02:37:03;;;;;;;21.03;17.60;;;;;;;41.22;37.64;100812.50;6153753;23;20413;-92
2023/03/05 02:39:30;;;;;;;31.10;15.80;;;;;;;41.30;37.69;100814.38;6153323;23;20488;-92
2023/03/05 02:41:56;;;;;;;22.20;16.83;;;;;;;41.50;37.33;100818.28;6153287;23;20875;-92
2023/03/05 02:44:23;;;;;;;26.80;17.40;;;;;;;41.56;37.11;100821.59;6152687;23;20381;-91
2023/03/05 02:46:50;;;;;;;23.00;17.90;;;;;;;41.44;37.66;100818.81;6150679;23;20389;-91
2023/03/05 02:49:16;;;;;;;22.10;16.23;;;;;;;41.56;37.11;100811.50;6153089;23;20396;-87
2023/03/05 02:51:42;;;;;;;24.97;17.93;;;;;;;41.54;37.50;100794.69;6152818;23;20385;-88
2023/03/05 02:54:09;;;;;;;25.07;16.83;;;;;;;41.61;37.24;100796.88;6153260;23;20485;-89
2023/03/05 02:56:37;;;;;;;30.37;17.80;;;;;;;41.47;37.33;100790.91;6152919;23;20409;-89
2023/03/05 02:59:03;;;;;;;27.53;18.00;;;;;;;41.69;37.15;100798.75;6152953;23;20389;-88
2023/03/05 03:01:29;;;;;;;24.10;18.40;;;;;;;41.63;37.27;100794.63;6152732;23;20901;-89
2023/03/05 03:03:56;;;;;;;25.33;16.20;;;;;;;41.47;37.54;100790.91;6153058;23;20377;-89
2023/03/05 03:06:25;;;;;;;28.43;16.77;;;;;;;41.36;37.95;100792.44;6152304;23;20468;-88
2023/03/05 03:08:52;;;;;;;24.43;17.03;;;;;;;41.38;37.97;100790.19;6153106;23;20413;-88
2023/03/05 03:11:20;;;;;;;25.43;14.37;;;;;;;41.67;37.64;100789.28;6103775;23;20730;-88
2023/03/05 03:13:46;;;;;;;28.90;17.20;;;;;;;41.69;37.15;100787.84;6153232;23;20750;-88
2023/03/05 03:16:14;;;;;;;22.93;15.80;;;;;;;41.67;37.44;100789.28;6127270;23;20381;-90
2023/03/05 03:18:40;;;;;;;26.93;17.37;;;;;;;41.57;37.56;100774.97;6127686;23;20872;-87
2023/03/05 03:21:06;;;;;;;21.23;17.00;;;;;;;41.65;37.42;100786.91;6152944;23;20430;-88
2023/03/05 03:23:33;;;;;;;30.47;18.20;;;;;;;41.67;37.53;100784.66;6152621;23;20381;-85
2023/03/05 03:25:59;;;;;;;34.20;18.33;;;;;;;41.72;37.44;100786.38;6154735;23;20430;-88
2023/03/05 03:28:25;;;;;;;31.30;16.50;;;;;;;41.54;37.85;100788.44;6152737;23;20389;-88
2023/03/05 03:30:51;;;;;;;37.70;19.80;;;;;;;41.61;37.48;100796.88;6152576;23;20384;-88
2023/03/05 03:33:18;;;;;;;25.90;17.70;;;;;;;41.66;37.64;100783.06;6152744;23;20409;-89
2023/03/05 03:35:45;;;;;;;21.90;16.37;;;;;;;41.81;37.28;100785.19;6127893;23;20930;-88
2023/03/05 03:38:13;;;;;;;29.00;15.67;;;;;;;41.86;37.12;100782.25;6127421;23;20393;-89
2023/03/05 03:40:40;;;;;;;32.63;14.77;;;;;;;41.74;37.53;100775.94;6151813;23;20432;-84
2023/03/05 03:43:09;;;;;;;25.53;16.17;;;;;;;41.76;37.87;100773.72;6152904;23;20361;-90
2023/03/05 03:45:40;;;;;;;22.43;15.23;;;;;;;41.89;37.84;100777.28;6149925;23;20413;-87
2023/03/05 03:48:06;;;;;;;32.20;15.77;;;;;;;41.84;37.91;100767.38;6152866;23;20753;-84
2023/03/05 03:50:32;;;;;;;25.10;16.13;;;;;;;41.59;38.08;100761.00;6151353;23;20925;-88
2023/03/05 03:52:58;;;;;;;33.33;14.40;;;;;;;41.92;37.52;100765.69;6151250;23;20393;-87
2023/03/05 03:55:24;;;;;;;29.90;16.13;;;;;;;41.78;38.13;100760.56;6126385;23;20764;-88
2023/03/05 03:57:51;;;;;;;24.20;15.63;;;;;;;41.86;37.55;100756.94;6153593;23;20735;-89
2023/03/05 04:00:18;;;;;;;30.07;17.37;;;;;;;41.50;38.64;100758.38;6152607;23;20464;-90
2023/03/05 04:02:44;;;;;;;26.43;14.77;;;;;;;41.64;38.33;100760.81;6127584;23;20746;-89
2023/03/05 04:05:10;;;;;;;31.07;16.23;;;;;;;41.61;38.55;100758.75;6127173;23;20901;-89
2023/03/05 04:07:36;;;;;;;41.60;16.93;;;;;;;41.66;38.40;100755.03;6151524;23;20444;-91
2023/03/05 04:10:03;;;;;;;32.50;15.50;;;;;;;41.31;39.15;100747.94;6127869;23;20852;-90
2023/03/05 04:12:30;;;;;;;24.83;13.57;;;;;;;41.49;38.43;100750.53;6152693;23;20413;-90
2023/03/05 04:14:57;;;;;;;19.80;12.80;;;;;;;41.49;38.61;100751.31;6128526;23;20389;-90
2023/03/05 04:17:23;;;;;;;25.27;16.47;;;;;;;41.45;38.71;100747.69;6153790;23;20396;-91
2023/03/05 04:19:49;;;;;;;26.50;13.50;;;;;;;41.40;38.64;100747.88;6128675;23;20413;-91
2023/03/05 04:22:16;;;;;;;23.67;12.90;;;;;;;41.32;38.48;100744.13;6154262;23;20507;-91
2023/03/05 04:24:43;;;;;;;33.87;15.10;;;;;;;40.83;39.23;100737.53;6153632;23;20417;-90
2023/03/05 04:27:09;;;;;;;27.47;12.70;;;;;;;40.96;39.10;100733.00;6154335;23;20419;-79
2023/03/05 04:29:36;;;;;;;26.83;15.63;;;;;;;41.40;38.40;100730.75;6103481;23;20472;-87
2023/03/05 04:32:02;;;;;;;22.20;13.27;;;;;;;41.39;38.40;100727.25;6153933;23;20385;-86
2023/03/05 04:34:28;;;;;;;34.20;14.43;;;;;;;41.27;38.63;100721.72;6153503;23;20805;-88
2023/03/05 04:36:55;;;;;;;23.27;12.67;;;;;;;41.19;38.60;100730.72;6153278;23;20925;-84
2023/03/05 04:39:21;;;;;;;19.50;13.27;;;;;;;41.30;38.21;100721.81;6153272;23;20850;-85
2023/03/05 04:41:47;;;;;;;26.37;12.90;;;;;;;41.44;38.38;100724.31;6153003;23;20493;-89
2023/03/05 04:44:13;;;;;;;26.77;12.77;;;;;;;41.42;38.35;100728.50;6128110;23;20913;-83
2023/03/05 04:46:40;;;;;;;25.10;15.00;;;;;;;41.30;38.51;100719.09;6128782;23;20399;-86
2023/03/05 04:49:06;;;;;;;24.03;12.30;;;;;;;40.83;39.62;100714.97;6153361;23;20392;-88
2023/03/05 04:51:32;;;;;;;27.40;13.70;;;;;;;41.23;38.88;100713.41;6153445;23;20413;-87
2023/03/05 04:53:59;;;;;;;22.70;13.00;;;;;;;41.23;38.41;100716.13;6153720;23;20393;-87
2023/03/05 04:56:25;;;;;;;19.30;13.37;;;;;;;41.22;38.48;100706.38;6128264;23;20484;-87
2023/03/05 04:58:51;;;;;;;24.73;13.50;;;;;;;40.93;39.16;100715.38;6152748;23;20389;-85
2023/03/05 05:01:17;;;;;;;31.20;15.30;;;;;;;40.92;39.21;100713.78;6154621;23;20444;-83
2023/03/05 05:03:43;;;;;;;23.67;13.37;;;;;;;40.88;39.01;100717.47;6153970;23;20393;-90
2023/03/05 05:06:09;;;;;;;30.80;14.70;;;;;;;40.70;39.69;100731.19;6153331;23;20870;-85
2023/03/05 05:08:35;;;;;;;25.97;13.33;;;;;;;40.54;39.54;100746.47;6152648;23;20448;-88
2023/03/05 05:11:06;;;;;;;31.73;15.90;;;;;;;41.10;38.59;100747.13;6153569;23;20918;-87
2023/03/05 05:13:35;;;;;;;28.40;15.47;;;;;;;41.04;38.92;100754.69;6151132;23;20452;-80
2023/03/05 05:16:01;;;;;;;23.27;15.20;;;;;;;40.86;38.85;100755.09;6153499;23;20850;-88
2023/03/05 05:18:27;;;;;;;30.20;16.03;;;;;;;40.70;39.46;100758.41;6153272;23;20703;-88
2023/03/05 05:20:54;;;;;;;23.00;15.83;;;;;;;41.03;38.70;100765.91;6154326;23;21008;-85
2023/03/05 05:23:22;;;;;;;34.37;15.37;;;;;;;41.05;38.55;100775.31;6154419;23;20353;-85
2023/03/05 05:26:00;;;;;;;24.10;15.93;;;;;;;41.07;38.25;100777.72;6154002;23;20810;-89
2023/03/05 05:28:27;;;;;;;26.10;15.90;;;;;;;41.08;38.37;100773.88;6152656;23;20392;-81
2023/03/05 05:30:54;;;;;;;24.87;15.37;;;;;;;41.19;37.71;100785.97;6153307;23;20833;-84
2023/03/05 05:33:21;;;;;;;30.00;15.57;;;;;;;40.95;38.22;100799.41;6153362;23;20763;-80
2023/03/05 05:35:47;;;;;;;23.60;16.70;;;;;;;40.50;39.47;100802.59;6153460;23;20392;-87
2023/03/05 05:38:15;;;;;;;31.63;16.37;;;;;;;40.71;38.90;100798.06;6153531;23;20385;-85
2023/03/05 05:40:41;;;;;;;27.57;15.90;;;;;;;40.55;39.06;100803.22;6153914;23;20872;-88
2023/03/05 05:43:07;;;;;;;41.87;16.73;;;;;;;40.64;39.32;100808.66;6153022;23;20389;-85
2023/03/05 05:45:36;;;;;;;27.73;17.10;;;;;;;40.58;39.30;100809.97;6153971;23;20842;-92
2023/03/05 05:48:03;;;;;;;26.53;16.30;;;;;;;40.74;38.83;100805.53;6153287;23;20382;-92
2023/03/05 05:50:29;;;;;;;22.73;17.10;;;;;;;40.71;39.12;100817.09;6154032;23;20388;-92
2023/03/05 05:52:55;;;;;;;47.33;22.00;;;;;;;40.52;39.27;100814.78;6152442;23;20408;-89
2023/03/05 05:55:21;;;;;;;20.77;17.63;;;;;;;40.47;38.83;100819.56;6153439;23;20409;-88
2023/03/05 05:57:48;;;;;;;31.77;20.20;;;;;;;40.35;39.44;100825.66;6153442;23;20393;-88
2023/03/05 06:00:14;;;;;;;29.83;19.37;;;;;;;40.55;39.25;100826.91;6149584;23;20416;-86
2023/03/05 06:02:42;;;;;;;34.60;22.03;;;;;;;40.39;39.61;100831.22;6151615;23;20425;-90
2023/03/05 06:05:10;;;;;;;42.77;23.60;;;;;;;40.77;38.70;100834.81;6152011;23;20792;-88
2023/03/05 06:07:36;;;;;;;26.70;20.87;;;;;;;40.73;38.85;100843.97;6151356;23;20842;-90
2023/03/05 06:10:03;;;;;;;35.37;19.70;;;;;;;40.72;38.66;100843.16;6151293;23;20924;-88
2023/03/05 06:12:29;;;;;;;36.20;22.33;;;;;;;40.68;39.09;100841.41;6150855;23;20378;-88
2023/03/05 06:14:55;;;;;;;34.83;21.90;;;;;;;40.67;38.87;100843.34;6097385;23;20816;-88
2023/03/05 06:17:22;;;;;;;38.03;25.00;;;;;;;40.67;38.74;100848.78;6097873;23;20390;-84
2023/03/05 06:19:48;;;;;;;32.87;23.87;;;;;;;40.93;38.14;100840.53;6097675;23;20444;-88
2023/03/05 06:22:13;;;;;;;38.73;28.03;;;;;;;41.15;38.01;100855.00;6096913;23;20433;-84
2023/03/05 06:24:39;;;;;;;46.40;28.30;;;;;;;40.81;38.00;100852.06;6097663;23;20453;-89
2023/03/05 06:27:05;;;;;;;38.17;27.90;;;;;;;41.04;37.94;100860.00;6097976;23;20400;-88
2023/03/05 06:29:31;;;;;;;38.00;27.53;;;;;;;40.74;38.43;100862.66;6097182;23;20401;-85
2023/03/05 06:31:57;;;;;;;33.57;23.67;;;;;;;40.84;38.32;100861.50;6098207;23;20891;-85
2023/03/05 06:34:23;;;;;;;34.50;22.67;;;;;;;40.90;37.95;100862.97;6097870;23;20429;-88
2023/03/05 06:36:49;;;;;;;35.50;22.20;;;;;;;40.83;38.15;100864.56;6098240;23;20847;-89
2023/03/05 06:39:15;;;;;;;50.27;23.40;;;;;;;41.01;37.70;100875.06;6096883;23;20736;-84
2023/03/05 06:41:41;;;;;;;33.30;22.47;;;;;;;41.14;37.59;100873.25;6097902;23;20426;-89
2023/03/05 06:44:08;;;;;;;45.23;24.93;;;;;;;41.21;37.52;100878.19;6097730;23;20465;-88
2023/03/05 06:46:38;;;;;;;41.57;24.73;;;;;;;41.10;37.52;100883.19;6097856;23;20874;-89
2023/03/05 06:49:05;;;;;;;35.93;22.57;;;;;;;41.22;37.50;100883.28;6098128;23;20390;-92
2023/03/05 06:51:34;;;;;;;36.60;23.83;;;;;;;41.20;37.39;100885.53;6097268;23;20393;-83
2023/03/05 06:54:03;;;;;;;43.87;23.90;;;;;;;41.16;37.61;100883.81;6123234;23;20835;-84
2023/03/05 06:56:30;;;;;;;36.73;22.10;;;;;;;41.09;37.22;100889.75;6099378;23;20437;-90
2023/03/05 06:58:56;;;;;;;25.60;20.80;;;;;;;41.16;37.44;100895.47;6098846;23;20828;-88
2023/03/05 07:01:22;;;;;;;42.33;21.03;;;;;;;41.22;36.89;100894.16;6098164;23;20435;-84
2023/03/05 07:03:50;;;;;;;39.57;23.30;;;;;;;41.28;37.34;100905.66;6098731;23;20414;-82
2023/03/05 07:06:17;;;;;;;36.30;22.30;;;;;;;41.30;36.91;100901.47;6074792;23;20875;-78
2023/03/05 07:08:46;;;;;;;31.97;20.17;;;;;;;41.42;36.83;100905.44;6097372;23;20467;-84
2023/03/05 07:11:14;;;;;;;31.53;20.90;;;;;;;41.53;36.77;100906.66;6123581;23;20378;-79
2023/03/05 07:13:42;;;;;;;46.23;21.97;;;;;;;41.30;37.10;100904.19;6107146;23;20453;-81
2023/03/05 07:16:12;;;;;;;33.60;18.70;;;;;;;41.57;36.61;100910.34;6124176;23;20370;-88
2023/03/05 07:18:38;;;;;;;35.53;21.33;;;;;;;41.52;36.78;100916.78;6117676;23;20398;-82
2023/03/05 07:21:31;;;;;;;36.70;21.73;;;;;;;41.50;36.79;100915.50;6121491;23;20421;-89
2023/03/05 07:23:59;;;;;;;37.70;20.57;;;;;;;41.49;37.00;100924.78;6122516;23;20405;-89
2023/03/05 07:26:27;;;;;;;29.40;19.90;;;;;;;41.63;37.00;100943.63;6123050;23;20914;-84
2023/03/05 07:28:53;;;;;;;29.27;21.57;;;;;;;41.43;36.72;100950.59;6121515;23;20705;-86
2023/03/05 07:31:29;;;;;;;36.27;21.37;;;;;;;41.66;36.64;100951.91;6121915;23;20390;-88
2023/03/05 07:33:57;;;;;;;35.93;21.90;;;;;;;41.57;36.87;100957.44;6121856;23;20393;-85
2023/03/05 07:36:23;;;;;;;35.80;21.23;;;;;;;41.50;37.12;100965.31;6097342;23;20469;-84
2023/03/05 07:38:49;;;;;;;35.37;22.40;;;;;;;41.51;36.97;100966.13;6121006;23;20382;-84
2023/03/05 07:41:18;;;;;;;38.50;20.77;;;;;;;41.27;37.45;100972.13;6120282;23;20491;-84
2023/03/05 07:43:45;;;;;;;34.33;22.17;;;;;;;41.61;36.91;100976.63;6119796;23;20421;-83
2023/03/05 07:46:14;;;;;;;32.73;18.63;;;;;;;41.57;37.04;100971.03;6121313;23;20735;-88
2023/03/05 07:48:40;;;;;;;28.43;19.33;;;;;;;41.56;36.96;100976.81;6122418;23;20394;-84
2023/03/05 07:51:13;;;;;;;41.47;22.97;;;;;;;41.48;36.83;100983.91;6123280;23;20913;-86
2023/03/05 07:53:39;;;;;;;32.40;20.20;;;;;;;41.22;37.41;100983.19;6123573;23;20500;-83
2023/03/05 07:56:42;;;;;;;36.77;21.83;;;;;;;41.51;36.85;100990.63;6123898;23;20465;-85
2023/03/05 07:59:12;;;;;;;41.60;22.97;;;;;;;41.70;36.49;100996.44;6122653;23;20389;-85
2023/03/05 08:01:40;;;;;;;35.40;20.20;;;;;;;41.61;37.08;101004.66;6123379;23;20473;-85
2023/03/05 08:04:07;;;;;;;38.03;21.70;;;;;;;41.10;37.68;101002.13;6123656;23;20374;-85
2023/03/05 08:06:33;;;;;;;35.63;22.33;;;;;;;41.49;37.24;101001.81;6121902;23;20440;-85
2023/03/05 08:09:00;;;;;;;42.23;24.70;;;;;;;41.43;37.17;100999.63;6122945;23;20768;-85
2023/03/05 08:11:27;;;;;;;30.43;20.00;;;;;;;41.51;37.24;101005.03;6123658;23;20398;-85
2023/03/05 08:13:53;;;;;;;25.87;19.33;;;;;;;41.43;36.99;101000.41;6128260;23;20473;-85
2023/03/05 08:16:20;;;;;;;37.30;19.80;;;;;;;41.64;37.04;100997.75;6100027;23;20393;-85
2023/03/05 08:18:47;;;;;;;35.23;26.80;;;;;;;41.48;37.25;101007.59;6099747;23;20370;-85
2023/03/05 08:21:21;;;;;;;34.23;24.57;;;;;;;41.74;36.96;100997.41;6125906;23;20410;-85
2023/03/05 08:23:47;;;;;;;30.00;18.80;;;;;;;41.82;36.85;101010.19;6099568;23;20733;-85
2023/03/05 08:26:20;;;;;;;35.00;16.80;;;;;;;41.15;37.88;100994.59;6099970;23;20374;-85
2023/03/05 08:28:47;;;;;;;31.70;17.53;;;;;;;41.82;36.94;101007.47;6098246;23;20726;-84
2023/03/05 08:31:18;;;;;;;31.40;17.20;;;;;;;41.79;37.03;101015.47;6099894;23;20854;-89
2023/03/05 08:33:44;;;;;;;31.97;17.10;;;;;;;41.56;37.34;101015.75;6099696;23;20381;-85
2023/03/05 08:36:11;;;;;;;25.03;15.33;;;;;;;41.96;36.38;101012.66;6100396;23;20370;-85
2023/03/05 08:38:37;;;;;;;33.57;18.30;;;;;;;41.64;37.36;101005.13;6100463;23;20982;-83
2023/03/05 08:41:03;;;;;;;29.90;17.67;;;;;;;41.90;36.60;101013.19;6100114;23;20500;-84
2023/03/05 08:43:30;;;;;;;32.10;18.50;;;;;;;42.04;36.75;101024.63;6099199;23;20397;-83
2023/03/05 08:45:56;;;;;;;24.93;16.43;;;;;;;41.99;36.40;101020.19;6099828;23;20869;-83
2023/03/05 08:48:22;;;;;;;29.63;16.30;;;;;;;42.04;36.04;101030.88;6099498;23;20389;-83
2023/03/05 08:50:53;;;;;;;29.90;15.83;;;;;;;41.67;37.40;101020.81;6099417;23;20831;-88
2023/03/05 08:53:23;;;;;;;31.23;16.57;;;;;;;41.92;36.85;101027.25;6126193;23;20847;-88
2023/03/05 08:55:59;;;;;;;25.47;15.77;;;;;;;41.98;36.94;101020.50;6126129;23;20369;-87
2023/03/05 08:58:46;;;;;;;;;;;;;;;;;;;;;
2023/03/05 09:01:30;;;;;;;28.90;15.93;;;;;;;42.29;36.12;101026.38;6085314;23;20500;-89
2023/03/05 09:04:22;;;;;;;;;;;;;;;;;;;;;
2023/03/05 09:07:08;;;;;;;32.73;17.03;;;;;;;42.31;36.44;101047.88;6119887;23;20474;-91
2023/03/05 09:09:34;;;;;;;34.83;16.80;;;;;;;42.25;36.54;101039.09;6101662;23;20400;-90
2023/03/05 09:12:01;;;;;;;27.13;14.23;;;;;;;41.89;36.63;101030.66;6099788;23;20454;-94
2023/03/05 09:14:27;;;;;;;33.07;12.40;;;;;;;42.04;35.92;101046.41;6117456;23;20437;-95
2023/03/05 09:16:56;;;;;;;22.83;12.13;;;;;;;42.28;35.35;101041.16;6125779;23;20378;-92
2023/03/05 09:19:23;;;;;;;22.40;11.43;;;;;;;41.84;36.45;101042.53;6124194;23;20401;-87
2023/03/05 09:21:49;;;;;;;24.93;14.50;;;;;;;42.17;36.43;101039.94;6124560;23;20425;-92
2023/03/05 09:24:15;;;;;;;26.30;16.20;;;;;;;41.78;36.74;101039.19;6124128;23;20461;-88
2023/03/05 09:26:42;;;;;;;25.80;13.90;;;;;;;42.25;36.30;101043.75;6123108;23;20390;-84
2023/03/05 09:29:08;;;;;;;22.63;14.20;;;;;;;41.72;36.97;101036.97;6123821;23;20854;-85
2023/03/05 09:31:37;;;;;;;29.97;14.67;;;;;;;42.03;36.73;101042.09;6125456;23;20463;-85
2023/03/05 09:34:06;;;;;;;22.20;14.80;;;;;;;41.21;38.15;101039.56;6123469;23;20390;-85
2023/03/05 09:36:32;;;;;;;27.27;14.60;;;;;;;41.86;36.99;101032.91;6122945;23;20412;-87
2023/03/05 09:38:58;;;;;;;28.43;14.03;;;;;;;42.52;36.02;101042.41;6123414;23;20382;-85
2023/03/05 09:41:33;;;;;;;22.83;13.07;;;;;;;41.97;36.78;101035.25;6122797;23;20430;-87
2023/03/05 09:44:31;;;;;;;29.23;15.80;;;;;;;41.56;37.52;101039.47;6122326;23;20389;-84
2023/03/05 09:47:31;;;;;;;23.83;13.97;;;;;;;42.08;37.19;101050.88;6087275;23;20712;-84
2023/03/05 09:50:31;;;;;;;24.87;10.60;;;;;;;42.22;35.63;101047.94;6124774;23;20377;-92
2023/03/05 09:53:22;;;;;;;14.50;10.97;;;;;;;42.39;34.76;101049.72;6123475;23;20953;-86
2023/03/05 09:55:52;;;;;;;21.83;10.07;;;;;;;41.88;35.87;101040.75;6124261;23;20389;-89
2023/03/05 09:58:23;;;;;;;22.00;10.67;;;;;;;42.53;34.80;101038.53;6124557;23;20460;-92
2023/03/05 10:01:00;;;;;;;17.33;10.13;;;;;;;42.20;34.93;101025.66;6124150;23;20393;-86
2023/03/05 10:03:42;;;;;;;16.17;9.30;;;;;;;42.47;34.43;101031.69;6123054;23;20397;-86
2023/03/05 10:06:30;;;;;;;18.83;8.80;;;;;;;42.52;33.91;101015.94;6100302;23;20417;-94
2023/03/05 10:09:09;;;;;;;18.43;9.47;;;;;;;42.45;34.41;101026.59;6118454;23;20386;-91
2023/03/05 10:12:00;;;;;;;22.23;10.43;;;;;;;42.29;34.49;101026.38;6125824;23;20835;-90
2023/03/05 10:14:34;;;;;;;17.57;12.00;;;;;;;42.26;34.62;101018.09;6123922;23;20477;-91
2023/03/05 10:17:45;;;;;;;15.40;9.40;;;;;;;42.58;33.93;101020.06;6123939;23;20381;-87
2023/03/05 10:20:41;;;;;;;22.57;12.90;;;;;;;42.58;34.37;101027.47;6125956;23;20448;-87
2023/03/05 10:23:07;;;;;;;16.67;10.20;;;;;;;42.41;34.52;101020.19;6123448;23;20398;-85
2023/03/05 10:26:11;;;;;;;23.33;10.47;;;;;;;42.64;34.10;101020.66;6123722;23;20389;-88
2023/03/05 10:29:06;;;;;;;16.50;10.60;;;;;;;42.53;33.82;101009.34;6123363;23;20372;-86
2023/03/05 10:31:59;;;;;;;17.20;9.23;;;;;;;42.57;34.09;101013.03;6105351;23;20382;-86
2023/03/05 10:34:43;;;;;;;14.97;9.10;;;;;;;42.84;33.70;101002.66;6125821;23;20366;-87
2023/03/05 10:37:34;;;;;;;16.00;9.57;;;;;;;42.71;34.04;101001.03;6126920;23;20361;-87
2023/03/05 10:40:44;;;;;;;21.00;9.97;;;;;;;42.68;34.05;100991.59;6132788;23;20370;-91
2023/03/05 10:43:49;;;;;;;15.33;9.57;;;;;;;42.52;33.98;100996.03;6128444;23;20379;-89
2023/03/05 10:46:24;;;;;;;13.57;8.80;;;;;;;42.70;33.33;100988.53;6120339;23;20383;-92
2023/03/05 10:48:57;;;;;;;14.57;9.37;;;;;;;42.49;34.23;100997.53;6072753;23;20472;-90
2023/03/05 10:51:56;;;;;;;14.77;8.47;;;;;;;42.68;33.71;100991.59;6125607;23;20361;-92
2023/03/05 10:54:34;;;;;;;14.00;9.87;;;;;;;42.53;34.04;100984.00;6061182;23;20378;-91
2023/03/05 11:00:36;;;;;;;17.53;8.87;;;;;;;42.26;35.05;100975.25;6134250;23;20901;-94
2023/03/05 11:03:18;;;;;;;21.83;9.70;;;;;;;42.28;34.75;100970.25;6128659;23;20469;-94
2023/03/05 11:05:47;;;;;;;29.50;11.80;;;;;;;42.05;35.29;100971.69;6120286;23;20874;-86
2023/03/05 11:08:35;;;;;;;16.60;8.33;;;;;;;42.55;34.33;100970.84;6122158;23;20859;-84
2023/03/05 11:11:17;;;;;;;18.33;11.10;;;;;;;41.94;35.65;100962.34;6121529;23;20432;-85
2023/03/05 11:13:57;;;;;;;18.77;9.87;;;;;;;42.48;34.34;100960.47;6123999;23;20441;-85
2023/03/05 11:16:45;;;;;;;19.67;10.07;;;;;;;42.54;34.17;100958.31;6097334;23;20393;-84
2023/03/05 11:19:18;;;;;;;16.80;10.90;;;;;;;42.27;34.86;100954.25;6098838;23;20386;-84
2023/03/05 11:21:45;;;;;;;19.67;10.90;;;;;;;41.89;35.38;100941.53;6100519;23;20945;-83
2023/03/05 11:24:17;;;;;;;15.00;9.30;;;;;;;42.48;33.56;100954.19;6099300;23;20396;-84
2023/03/05 11:26:52;;;;;;;15.10;9.47;;;;;;;42.64;33.44;100942.34;6098543;23;20390;-86
2023/03/05 11:29:22;;;;;;;15.97;9.30;;;;;;;42.38;33.55;100945.31;6098286;23;20392;-84